Time;durP1;ratioP1;P1;durP2;ratioP2;P2;SDS_P1;SDS_P2;PMS_P1;PMS_P2;Temp;Humidity;BMP_temperature;BMP_pressure;BME280_temperature;BME280_humidity;BME280_pressure;Samples;Min_cycle;Max_cycle;Signal;HPM_P1;HPM_P2
2022/01/27 00:01:43;;;;;;;0.20;0.10;;;9.70;99.90;;;;;;25591802;23;20220;-75
2022/01/27 00:11:49;;;;;;;0.20;0.13;;;9.60;99.90;;;;;;25591048;23;20198;-74
2022/01/27 00:21:52;;;;;;;0.20;0.10;;;8.90;99.90;;;;;;25592985;23;20187;-72
2022/01/27 00:31:58;;;;;;;0.20;0.10;;;8.90;99.90;;;;;;25590379;23;20166;-76
2022/01/27 00:42:02;;;;;;;1.07;1.07;;;9.30;99.90;;;;;;25592429;23;20185;-67
2022/01/27 00:52:11;;;;;;;0.20;0.03;;;9.10;99.90;;;;;;25590142;23;20260;-67
2022/01/27 01:02:22;;;;;;;0.20;0.10;;;8.90;99.90;;;;;;25591053;23;20221;-66
2022/01/27 01:33:12;;;;;;;0.20;0.10;;;8.80;99.90;;;;;;25589482;23;20173;-67
2022/01/27 01:43:16;;;;;;;0.20;0.10;;;8.60;99.90;;;;;;25591084;23;20186;-71
2022/01/27 01:53:22;;;;;;;0.20;0.10;;;8.40;99.90;;;;;;25589535;23;20692;-70
2022/01/27 02:03:25;;;;;;;0.20;0.10;;;8.60;99.90;;;;;;25589047;23;20198;-71
2022/01/27 02:23:54;;;;;;;0.20;0.10;;;8.40;99.90;;;;;;25589276;23;20221;-65
2022/01/27 02:33:58;;;;;;;0.20;0.10;;;8.90;99.90;;;;;;25586267;23;20170;-65
2022/01/27 02:44:04;;;;;;;0.20;0.10;;;8.40;99.90;;;;;;25587689;23;20265;-65
2022/01/27 02:54:08;;;;;;;0.20;0.10;;;8.50;99.90;;;;;;25587187;23;20690;-73
2022/01/27 03:04:13;;;;;;;0.20;0.10;;;8.50;99.90;;;;;;25587160;23;20225;-73
2022/01/27 03:14:20;;;;;;;0.20;0.10;;;8.10;99.90;;;;;;25586028;23;20221;-72
2022/01/27 03:24:26;;;;;;;0.20;0.10;;;7.90;99.90;;;;;;25594114;23;20229;-72
2022/01/27 03:34:30;;;;;;;0.20;0.10;;;7.20;99.90;;;;;;25599661;23;20166;-71
2022/01/27 03:44:35;;;;;;;0.20;0.20;;;6.00;99.90;;;;;;25598423;23;20357;-72
2022/01/27 03:54:40;;;;;;;0.20;0.10;;;6.00;99.90;;;;;;25599573;23;20154;-72
2022/01/27 04:04:45;;;;;;;0.20;0.10;;;5.80;99.90;;;;;;25599978;23;20210;-72
2022/01/27 04:14:48;;;;;;;0.20;0.10;;;5.90;99.90;;;;;;25597583;23;20662;-72
2022/01/27 04:24:54;;;;;;;0.20;0.10;;;6.70;99.90;;;;;;25598085;23;20193;-65
2022/01/27 04:35:02;;;;;;;0.20;0.10;;;7.30;99.90;;;;;;25595224;23;20494;-64
2022/01/27 04:45:09;;;;;;;0.20;0.10;;;7.30;99.90;;;;;;25591509;23;20637;-65
2022/01/27 04:55:16;;;;;;;0.20;0.10;;;7.40;99.90;;;;;;25591521;23;20170;-65
2022/01/27 05:05:22;;;;;;;0.20;0.10;;;7.60;99.90;;;;;;25590533;23;20206;-65
2022/01/27 05:15:26;;;;;;;0.20;0.10;;;7.50;99.90;;;;;;25590665;23;20249;-70
2022/01/27 05:25:31;;;;;;;0.20;0.10;;;7.70;99.90;;;;;;25588163;23;20190;-70
2022/01/27 05:35:35;;;;;;;0.20;0.10;;;7.90;99.90;;;;;;25589610;23;20174;-72
2022/01/27 05:45:41;;;;;;;0.20;0.10;;;7.90;99.90;;;;;;25588786;23;20198;-70
2022/01/27 05:55:45;;;;;;;0.20;0.10;;;7.70;99.90;;;;;;25589224;23;20604;-69
2022/01/27 06:05:51;;;;;;;0.20;0.10;;;7.50;99.90;;;;;;25587739;23;20210;-69
2022/01/27 06:15:55;;;;;;;0.20;0.10;;;7.40;99.90;;;;;;25580393;23;20170;-71
2022/01/27 06:26:00;;;;;;;0.20;0.10;;;7.30;99.90;;;;;;25586427;23;20460;-70
2022/01/27 06:36:04;;;;;;;0.20;0.10;;;7.20;99.90;;;;;;25587213;23;20188;-70
2022/01/27 06:46:11;;;;;;;0.30;0.30;;;7.30;99.90;;;;;;25581379;23;20198;-71
2022/01/27 06:56:15;;;;;;;0.20;0.00;;;7.40;99.90;;;;;;25585015;23;20170;-71
2022/01/27 07:06:21;;;;;;;0.20;0.10;;;7.40;99.90;;;;;;25575035;23;20285;-66
2022/01/27 07:16:25;;;;;;;0.20;0.10;;;7.50;99.90;;;;;;25576896;23;20277;-68
2022/01/27 07:26:30;;;;;;;0.20;0.10;;;7.60;99.90;;;;;;25583466;23;20170;-70
2022/01/27 07:36:34;;;;;;;0.20;0.10;;;7.60;99.90;;;;;;25582601;23;20251;-71
2022/01/27 07:46:39;;;;;;;0.30;0.23;;;7.80;99.90;;;;;;25580248;23;20249;-69
2022/01/27 07:56:43;;;;;;;0.20;0.10;;;7.90;99.90;;;;;;25579236;23;20198;-72
2022/01/27 08:06:48;;;;;;;0.20;0.10;;;8.30;99.90;;;;;;25581459;23;20277;-71
2022/01/27 08:16:52;;;;;;;0.20;0.10;;;8.70;99.90;;;;;;25587162;23;20273;-70
2022/01/27 08:39:16;;;;;;;0.63;0.63;;;9.30;99.90;;;;;;25561045;23;20229;-64
2022/01/27 08:49:23;;;;;;;0.20;0.10;;;9.80;99.90;;;;;;25582891;23;20265;-64
2022/01/27 08:59:49;;;;;;;0.20;0.10;;;10.20;99.90;;;;;;25584025;23;20206;-65
2022/01/27 09:09:53;;;;;;;0.20;0.10;;;10.60;99.90;;;;;;25585878;23;20162;-65
2022/01/27 09:20:02;;;;;;;0.20;0.10;;;11.10;99.90;;;;;;25583711;23;20194;-66
2022/01/27 09:30:07;;;;;;;1.70;1.70;;;11.50;99.90;;;;;;25582667;23;20228;-66
2022/01/27 09:40:15;;;;;;;0.20;0.10;;;11.70;99.90;;;;;;25570000;23;20206;-65
2022/01/27 09:50:34;;;;;;;0.20;0.10;;;12.10;99.90;;;;;;25571438;23;20189;-72
2022/01/27 10:00:40;;;;;;;0.20;0.10;;;12.70;99.90;;;;;;25570165;23;20285;-75
2022/01/27 10:10:45;;;;;;;0.20;0.10;;;13.10;99.90;;;;;;25565946;23;20197;-75
2022/01/27 10:20:53;;;;;;;0.20;0.10;;;13.40;99.90;;;;;;25568029;23;20213;-74
2022/01/27 10:31:01;;;;;;;0.20;0.10;;;13.90;99.90;;;;;;25570135;23;20228;-74
2022/01/27 10:41:08;;;;;;;0.20;0.10;;;14.10;99.90;;;;;;25564167;23;20210;-75
2022/01/27 10:51:18;;;;;;;1.70;1.60;;;14.70;99.90;;;;;;25568568;23;20166;-74
2022/01/27 11:01:25;;;;;;;0.20;0.20;;;15.50;99.90;;;;;;25567152;23;20210;-73
2022/01/27 11:11:29;;;;;;;0.23;0.23;;;16.00;99.90;;;;;;25567602;23;20625;-66
2022/01/27 11:21:38;;;;;;;0.20;0.10;;;16.20;99.90;;;;;;25564400;23;20194;-65
2022/01/27 11:32:01;;;;;;;0.20;0.00;;;16.70;99.90;;;;;;25567719;23;20174;-66
2022/01/27 11:42:07;;;;;;;0.20;0.10;;;16.30;99.90;;;;;;25569143;23;20213;-73
2022/01/27 11:52:21;;;;;;;0.20;0.10;;;16.90;99.90;;;;;;25575866;23;20540;-74
2022/01/27 12:02:26;;;;;;;0.20;0.10;;;17.70;99.90;;;;;;25572665;23;20218;-66
2022/01/27 12:12:33;;;;;;;0.20;0.10;;;18.20;99.90;;;;;;25574720;23;20502;-65
2022/01/27 12:23:04;;;;;;;3.63;3.50;;;17.90;99.90;;;;;;25570690;23;20200;-64
2022/01/27 12:33:08;;;;;;;0.20;0.20;;;18.00;99.90;;;;;;25573550;23;20170;-65
2022/01/27 12:43:15;;;;;;;0.20;0.00;;;18.70;99.90;;;;;;25570311;23;20210;-65
2022/01/27 12:53:21;;;;;;;0.20;0.00;;;18.60;99.90;;;;;;25571049;23;20581;-65
2022/01/27 13:03:26;;;;;;;0.20;0.07;;;19.40;99.90;;;;;;25570916;23;20206;-71
2022/01/27 13:13:35;;;;;;;0.20;0.00;;;19.70;99.90;;;;;;25572917;23;20170;-72
2022/01/27 13:23:46;;;;;;;0.20;0.00;;;19.80;99.90;;;;;;25571542;23;20261;-72
2022/01/27 13:33:49;;;;;;;0.20;0.10;;;19.30;99.90;;;;;;25564593;23;20176;-67
2022/01/27 13:44:02;;;;;;;0.20;0.10;;;20.00;99.90;;;;;;25567985;23;20723;-67
2022/01/27 13:54:07;;;;;;;0.20;0.10;;;19.60;99.90;;;;;;25568130;23;20308;-66
2022/01/27 14:04:12;;;;;;;0.20;0.10;;;20.20;99.90;;;;;;25569362;23;20205;-66
2022/01/27 14:14:18;;;;;;;0.20;0.10;;;20.20;99.90;;;;;;25565305;23;20177;-67
2022/01/27 14:24:23;;;;;;;0.20;0.00;;;20.20;99.90;;;;;;25566230;23;20205;-67
2022/01/27 14:34:32;;;;;;;0.20;0.00;;;20.40;99.90;;;;;;25564197;23;20170;-71
2022/01/27 14:44:37;;;;;;;0.20;0.10;;;20.70;99.90;;;;;;25562614;23;20648;-70
2022/01/27 14:54:41;;;;;;;0.20;0.20;;;20.50;99.90;;;;;;25561653;23;20170;-69
2022/01/27 15:05:07;;;;;;;0.20;0.10;;;19.90;99.90;;;;;;25559285;23;20198;-69
2022/01/27 15:25:35;;;;;;;0.20;0.10;;;19.60;99.90;;;;;;25557056;23;20894;-73
2022/01/27 15:35:40;;;;;;;0.20;0.10;;;19.30;99.90;;;;;;25558496;23;20196;-70
2022/01/27 15:45:45;;;;;;;0.20;0.10;;;19.00;99.90;;;;;;25557746;23;20206;-69
2022/01/27 15:55:49;;;;;;;0.43;0.43;;;17.90;99.90;;;;;;25559711;23;20175;-70
2022/01/27 16:05:55;;;;;;;0.30;0.30;;;17.10;99.90;;;;;;25559730;23;20202;-70
2022/01/27 16:15:59;;;;;;;0.33;0.33;;;16.50;99.90;;;;;;25555044;23;20182;-65
2022/01/27 16:26:06;;;;;;;1.80;1.70;;;16.00;99.90;;;;;;25559638;23;20201;-66
2022/01/27 16:36:10;;;;;;;0.20;0.10;;;15.20;99.90;;;;;;25565591;23;20269;-76
2022/01/27 16:46:16;;;;;;;0.20;0.10;;;13.90;99.90;;;;;;25568072;23;20213;-74
2022/01/27 16:56:20;;;;;;;0.20;0.10;;;13.50;99.90;;;;;;25567283;23;20173;-74
2022/01/27 17:06:26;;;;;;;0.20;0.00;;;12.80;99.90;;;;;;25565574;23;20646;-75
2022/01/27 17:16:30;;;;;;;0.20;0.10;;;12.20;99.90;;;;;;25565867;23;20197;-75
2022/01/27 17:26:35;;;;;;;0.20;0.10;;;11.80;99.90;;;;;;25567230;23;20198;-72
2022/01/27 17:36:39;;;;;;;0.20;0.00;;;11.10;99.90;;;;;;25565140;23;20180;-66
2022/01/27 17:46:46;;;;;;;0.20;0.10;;;10.70;99.90;;;;;;25562884;23;20205;-66
2022/01/27 17:56:50;;;;;;;0.20;0.10;;;10.40;99.90;;;;;;25563285;23;20174;-70
2022/01/27 18:06:56;;;;;;;0.20;0.10;;;10.20;99.90;;;;;;25570565;23;20490;-69
2022/01/27 18:17:00;;;;;;;0.20;0.10;;;9.90;99.90;;;;;;25576937;23;20515;-67
2022/01/27 18:27:06;;;;;;;0.20;0.10;;;9.90;99.90;;;;;;25561572;23;20194;-70
2022/01/27 18:37:10;;;;;;;0.20;0.10;;;9.60;99.90;;;;;;25567600;23;20170;-70
2022/01/27 18:47:15;;;;;;;0.20;0.10;;;9.40;99.90;;;;;;25576834;23;20238;-65
2022/01/27 18:57:18;;;;;;;0.20;0.00;;;9.20;99.90;;;;;;25577438;23;20170;-64
2022/01/27 19:07:24;;;;;;;0.20;0.00;;;9.30;99.90;;;;;;25575854;23;20193;-65
2022/01/27 19:17:27;;;;;;;0.20;0.00;;;9.20;99.90;;;;;;25578362;23;20155;-64
2022/01/27 19:27:33;;;;;;;0.20;0.10;;;8.90;99.90;;;;;;25577773;23;20194;-69
2022/01/27 19:37:37;;;;;;;0.20;0.10;;;8.60;99.90;;;;;;25577595;23;20597;-69
2022/01/27 19:47:42;;;;;;;0.20;0.10;;;8.40;99.90;;;;;;25576314;23;20280;-68
2022/01/27 19:57:46;;;;;;;0.20;0.00;;;8.40;99.90;;;;;;25578298;23;20720;-66
2022/01/27 20:07:53;;;;;;;0.20;0.00;;;8.50;99.90;;;;;;25584071;23;20269;-67
2022/01/27 20:17:57;;;;;;;0.20;0.03;;;8.60;99.90;;;;;;25585910;23;20170;-67
2022/01/27 20:28:02;;;;;;;0.20;0.00;;;8.40;99.90;;;;;;25583946;23;20186;-66
2022/01/27 20:38:06;;;;;;;0.20;0.00;;;8.00;99.90;;;;;;25585033;23;20241;-66
2022/01/27 20:48:12;;;;;;;0.20;0.07;;;7.90;99.90;;;;;;25588890;23;20289;-66
2022/01/27 20:58:15;;;;;;;0.20;0.00;;;7.60;99.90;;;;;;25589363;23;20190;-67
2022/01/27 21:08:22;;;;;;;0.57;0.57;;;7.80;99.90;;;;;;25590391;23;20196;-67
2022/01/27 21:18:27;;;;;;;0.20;0.00;;;7.60;99.90;;;;;;25588353;23;20166;-67
2022/01/27 21:28:32;;;;;;;0.20;0.00;;;7.60;99.90;;;;;;25591220;23;20182;-69
2022/01/27 21:38:36;;;;;;;0.20;0.00;;;7.20;99.90;;;;;;25589032;23;21035;-68
2022/01/27 21:48:42;;;;;;;0.20;0.00;;;7.00;99.90;;;;;;25589985;23;20297;-66
2022/01/27 21:58:47;;;;;;;0.20;0.00;;;7.10;99.90;;;;;;25588061;23;20269;-66
2022/01/27 22:08:52;;;;;;;0.20;0.00;;;6.70;99.90;;;;;;25588628;23;20289;-67
2022/01/27 22:18:55;;;;;;;0.20;0.00;;;7.20;99.90;;;;;;25587215;23;20254;-68
2022/01/27 22:29:01;;;;;;;0.20;0.00;;;7.30;99.90;;;;;;25587475;23;20245;-67
2022/01/27 22:39:07;;;;;;;0.20;0.00;;;6.70;99.90;;;;;;25584534;23;20232;-67
2022/01/27 22:49:12;;;;;;;0.20;0.00;;;6.80;99.90;;;;;;25586606;23;20162;-73
2022/01/27 22:59:16;;;;;;;0.20;0.00;;;6.70;99.90;;;;;;25587643;23;20555;-75
2022/01/27 23:09:24;;;;;;;0.20;0.00;;;7.40;99.90;;;;;;25587855;23;20217;-74
2022/01/27 23:19:35;;;;;;;0.20;0.10;;;7.70;99.90;;;;;;25585775;23;20178;-72
2022/01/27 23:29:49;;;;;;;0.20;0.00;;;7.60;99.90;;;;;;25585352;23;20180;-73
2022/01/27 23:40:05;;;;;;;0.20;0.10;;;8.20;99.90;;;;;;25590107;23;20212;-73
2022/01/27 23:50:14;;;;;;;1.10;0.97;;;8.20;99.90;;;;;;25595542;23;20178;-74
